Croswell, Michigan
Current Conditions -  °F | °C
As of 12:00 PM on Sunday 23 Nov 2014 (Local Time) from CYZR Reporting Station
Overcast Overcast  
Wind Chill: 40°   Ceiling: 4100
Heat Index: 46°   Visibility: 9mi
Dew Point: 45°   Wind: 15mph
Humidity: 93%   Direction: 190°S
Pressure: 29.89"   Gusts: NA
Location:  43.28°N, 82.62°W
Report Text: CYZR 231700Z AUTO 19013KT 9SM SCT007 BKN041 BKN048 OVC100 08/07 A2989 RMK PRESFR SLP125
Loading
Personal Weather Stations






























Interactive Weather Map New forecast layout! Learn more

10-Day Weather Forecast

Advertisements
Track Severe Weather on mobile